Time,TemperatureF,DewpointF,PressureIn,WindDirection,WindDirectionDegrees,WindSpeedMPH,WindSpeedGustMPH,Humidity,HourlyPrecipIn,Conditions,Clouds,dailyrainin,SoftwareType,DateUTC
2013-03-10 00:00:00,58.0,56.6,29.71,West,274,3.0,5.0,95,0.24,,,0.00,VWS V14.01,2013-03-10 06:00:00,
2013-03-10 00:05:00,58.0,56.6,29.72,WSW,241,2.0,2.0,95,0.23,,,0.01,VWS V14.01,2013-03-10 06:05:00,
2013-03-10 00:10:00,58.0,56.6,29.73,WSW,242,2.0,3.0,95,0.22,,,0.01,VWS V14.01,2013-03-10 06:10:00,
2013-03-10 00:15:00,58.0,56.6,29.72,WSW,242,0.0,2.0,95,0.20,,,0.01,VWS V14.01,2013-03-10 06:15:00,
2013-03-10 00:20:00,57.9,56.5,29.73,WSW,242,2.0,2.0,95,0.20,,,0.01,VWS V14.01,2013-03-10 06:20:00,
2013-03-10 00:25:00,57.9,56.5,29.73,WSW,242,0.0,1.0,95,0.21,,,0.02,VWS V14.01,2013-03-10 06:25:00,
2013-03-10 00:30:00,57.9,56.5,29.73,WSW,242,0.0,0.0,95,0.21,,,0.02,VWS V14.01,2013-03-10 06:30:00,
2013-03-10 00:35:00,57.8,56.4,29.72,WSW,242,3.0,3.0,95,0.21,,,0.02,VWS V14.01,2013-03-10 06:35:00,
2013-03-10 00:40:00,57.8,56.4,29.71,NNW,343,2.0,2.0,95,0.21,,,0.02,VWS V14.01,2013-03-10 06:40:00,
2013-03-10 00:45:00,57.7,56.3,29.71,NNW,344,1.0,3.0,95,0.11,,,0.02,VWS V14.01,2013-03-10 06:45:00,
2013-03-10 00:50:00,57.7,56.3,29.72,NNW,344,0.0,0.0,95,0.07,,,0.02,VWS V14.01,2013-03-10 06:50:00,
2013-03-10 00:55:00,57.6,56.2,29.71,NNW,344,3.0,3.0,95,0.04,,,0.02,VWS V14.01,2013-03-10 06:55:00,
2013-03-10 01:00:00,57.6,56.2,29.71,NNE,17,0.0,3.0,95,0.02,,,0.02,VWS V14.01,2013-03-10 07:00:00,
2013-03-10 01:05:00,57.5,56.1,29.71,NNE,17,0.0,1.0,95,0.01,,,0.02,VWS V14.01,2013-03-10 07:05:00,
2013-03-10 01:10:00,57.5,56.1,29.71,NNE,18,3.0,3.0,95,0.01,,,0.02,VWS V14.01,2013-03-10 07:10:00,
2013-03-10 01:15:00,57.4,56.0,29.73,NNE,18,0.0,2.0,95,0.01,,,0.02,VWS V14.01,2013-03-10 07:15:00,
2013-03-10 01:20:00,57.4,56.3,29.74,NNE,18,0.0,0.0,96,0.01,,,0.02,VWS V14.01,2013-03-10 07:20:00,
2013-03-10 01:25:00,57.4,56.3,29.73,NNE,18,0.0,1.0,96,0.00,,,0.02,VWS V14.01,2013-03-10 07:25:00,
2013-03-10 01:30:00,57.4,56.3,29.73,North,5,0.0,0.0,96,0.00,,,0.02,VWS V14.01,2013-03-10 07:30:00,
2013-03-10 01:35:00,57.4,56.3,29.70,North,5,2.0,3.0,96,0.01,,,0.03,VWS V14.01,2013-03-10 07:35:00,
2013-03-10 01:40:00,57.3,56.2,29.72,North,5,0.0,0.0,96,0.01,,,0.03,VWS V14.01,2013-03-10 07:40:00,
2013-03-10 01:45:00,57.3,56.2,29.72,North,5,0.0,0.0,96,0.01,,,0.03,VWS V14.01,2013-03-10 07:45:00,
2013-03-10 01:50:00,57.2,56.1,29.74,North,5,0.0,0.0,96,0.01,,,0.03,VWS V14.01,2013-03-10 07:50:00,
2013-03-10 01:55:00,57.2,56.1,29.74,WNW,294,3.0,4.0,96,0.01,,,0.03,VWS V14.01,2013-03-10 07:55:00,
2013-03-10 03:00:00,57.2,56.1,29.72,NNW,335,3.0,3.0,96,0.01,,,0.03,VWS V14.01,2013-03-10 08:00:00,
2013-03-10 03:05:00,57.1,56.0,29.72,NW,311,0.0,3.0,96,0.01,,,0.03,VWS V14.01,2013-03-10 08:05:00,
2013-03-10 03:10:00,57.1,56.0,29.73,WNW,293,3.0,4.0,96,0.01,,,0.03,VWS V14.01,2013-03-10 08:10:00,
2013-03-10 03:15:00,57.1,56.0,29.74,West,266,2.0,6.0,96,0.01,,,0.03,VWS V14.01,2013-03-10 08:15:00,
2013-03-10 03:20:00,57.0,55.9,29.74,West,280,0.0,2.0,96,0.01,,,0.03,VWS V14.01,2013-03-10 08:20:00,
2013-03-10 03:25:00,56.9,55.8,29.75,WSW,251,3.0,3.0,96,0.01,,,0.03,VWS V14.01,2013-03-10 08:25:00,
2013-03-10 03:30:00,56.9,55.8,29.76,WSW,250,0.0,1.0,96,0.01,,,0.03,VWS V14.01,2013-03-10 08:30:00,
2013-03-10 03:35:00,56.8,55.7,29.75,WSW,254,0.0,3.0,96,0.00,,,0.03,VWS V14.01,2013-03-10 08:35:00,
2013-03-10 03:40:00,56.8,55.7,29.75,WSW,254,3.0,3.0,96,0.00,,,0.03,VWS V14.01,2013-03-10 08:40:00,
2013-03-10 03:45:00,56.8,55.7,29.75,WSW,254,3.0,3.0,96,0.00,,,0.03,VWS V14.01,2013-03-10 08:45:00,
2013-03-10 03:50:00,56.7,55.6,29.75,WNW,283,2.0,3.0,96,0.00,,,0.03,VWS V14.01,2013-03-10 08:50:00,
2013-03-10 03:55:00,56.6,55.5,29.75,NW,304,3.0,5.0,96,0.00,,,0.03,VWS V14.01,2013-03-10 08:55:00,
2013-03-10 04:00:00,56.4,55.3,29.74,West,273,8.0,9.0,96,0.00,,,0.03,VWS V14.01,2013-03-10 09:00:00,
2013-03-10 04:05:00,56.0,54.9,29.73,NW,326,2.0,11.0,96,0.00,,,0.03,VWS V14.01,2013-03-10 09:05:00,
2013-03-10 04:10:00,55.5,54.1,29.76,West,262,7.0,7.0,95,0.00,,,0.03,VWS V14.01,2013-03-10 09:10:00,
2013-03-10 04:15:00,55.0,53.3,29.77,WSW,249,5.0,11.0,94,0.00,,,0.03,VWS V14.01,2013-03-10 09:15:00,
2013-03-10 04:20:00,54.8,53.1,29.76,West,278,4.0,6.0,94,0.00,,,0.03,VWS V14.01,2013-03-10 09:20:00,
2013-03-10 04:25:00,54.6,52.6,29.75,WNW,294,6.0,9.0,93,0.00,,,0.03,VWS V14.01,2013-03-10 09:25:00,
2013-03-10 04:30:00,54.5,52.2,29.75,West,269,7.0,7.0,92,0.00,,,0.03,VWS V14.01,2013-03-10 09:30:00,
2013-03-10 04:35:00,54.4,51.8,29.75,West,281,7.0,9.0,91,0.00,,,0.03,VWS V14.01,2013-03-10 09:35:00,
2013-03-10 04:40:00,54.4,51.2,29.76,West,275,6.0,10.0,89,0.00,,,0.03,VWS V14.01,2013-03-10 09:40:00,
2013-03-10 04:45:00,54.4,50.0,29.75,West,276,4.0,10.0,85,0.00,,,0.03,VWS V14.01,2013-03-10 09:45:00,
2013-03-10 04:50:00,54.5,49.5,29.75,West,273,8.0,9.0,83,0.00,,,0.03,VWS V14.01,2013-03-10 09:50:00,
2013-03-10 04:55:00,54.5,49.1,29.76,West,269,4.0,8.0,82,0.00,,,0.03,VWS V14.01,2013-03-10 09:55:00,
2013-03-10 05:00:00,54.5,48.5,29.74,WNW,287,6.0,8.0,80,0.00,,,0.03,VWS V14.01,2013-03-10 10:00:00,
2013-03-10 05:05:00,54.5,48.1,29.74,WNW,287,6.0,6.0,79,0.00,,,0.03,VWS V14.01,2013-03-10 10:05:00,
2013-03-10 05:10:00,54.4,48.0,29.75,WSW,246,5.0,9.0,79,0.00,,,0.03,VWS V14.01,2013-03-10 10:10:00,
2013-03-10 05:15:00,54.4,47.7,29.77,WSW,251,5.0,8.0,78,0.00,,,0.03,VWS V14.01,2013-03-10 10:15:00,
2013-03-10 05:20:00,54.3,47.6,29.78,WSW,248,5.0,5.0,78,0.00,,,0.03,VWS V14.01,2013-03-10 10:20:00,
2013-03-10 05:25:00,54.2,47.8,29.78,SW,223,5.0,5.0,79,0.01,,,0.04,VWS V14.01,2013-03-10 10:25:00,
2013-03-10 05:30:00,54.1,48.1,29.78,SSW,213,1.0,5.0,80,0.01,,,0.04,VWS V14.01,2013-03-10 10:30:00,
2013-03-10 05:35:00,53.9,47.9,29.77,SW,234,0.0,3.0,80,0.02,,,0.05,VWS V14.01,2013-03-10 10:35:00,
2013-03-10 05:40:00,53.7,48.0,29.76,SSW,213,4.0,5.0,81,0.02,,,0.05,VWS V14.01,2013-03-10 10:40:00,
2013-03-10 05:45:00,53.6,47.9,29.76,SW,225,3.0,4.0,81,0.02,,,0.05,VWS V14.01,2013-03-10 10:45:00,
2013-03-10 05:50:00,53.4,47.7,29.74,West,268,0.0,1.0,81,0.02,,,0.05,VWS V14.01,2013-03-10 10:50:00,
2013-03-10 05:55:00,53.3,48.0,29.74,SW,227,2.0,4.0,82,0.02,,,0.05,VWS V14.01,2013-03-10 10:55:00,
2013-03-10 06:00:00,53.1,47.8,29.74,SSW,199,0.0,2.0,82,0.02,,,0.05,VWS V14.01,2013-03-10 11:00:00,
2013-03-10 06:05:00,53.0,47.7,29.72,SSW,197,1.0,1.0,82,0.02,,,0.05,VWS V14.01,2013-03-10 11:05:00,
2013-03-10 06:10:00,52.9,47.9,29.72,SSW,197,2.0,2.0,83,0.02,,,0.05,VWS V14.01,2013-03-10 11:10:00,
2013-03-10 06:15:00,52.8,48.1,29.72,ESE,112,0.0,0.0,84,0.02,,,0.05,VWS V14.01,2013-03-10 11:15:00,
2013-03-10 06:20:00,52.7,48.3,29.70,ESE,112,0.0,1.0,85,0.02,,,0.05,VWS V14.01,2013-03-10 11:20:00,
2013-03-10 06:25:00,52.6,48.2,29.70,ESE,112,1.0,1.0,85,0.01,,,0.05,VWS V14.01,2013-03-10 11:25:00,
2013-03-10 06:30:00,52.5,48.4,29.70,ESE,112,0.0,1.0,86,0.01,,,0.05,VWS V14.01,2013-03-10 11:30:00,
2013-03-10 06:35:00,52.4,48.3,29.70,ESE,112,0.0,0.0,86,0.00,,,0.05,VWS V14.01,2013-03-10 11:35:00,
2013-03-10 06:40:00,52.3,48.5,29.72,South,171,4.0,5.0,87,0.00,,,0.05,VWS V14.01,2013-03-10 11:40:00,
2013-03-10 06:45:00,52.2,48.5,29.71,South,186,0.0,0.0,87,0.00,,,0.05,VWS V14.01,2013-03-10 11:45:00,
2013-03-10 06:50:00,52.1,48.4,29.73,South,175,3.0,5.0,87,0.00,,,0.05,VWS V14.01,2013-03-10 11:50:00,
2013-03-10 06:55:00,51.9,48.2,29.73,SSE,168,2.0,3.0,87,0.00,,,0.05,VWS V14.01,2013-03-10 11:55:00,
2013-03-10 07:00:00,51.9,48.2,29.73,South,181,2.0,2.0,87,0.00,,,0.05,VWS V14.01,2013-03-10 12:00:00,
2013-03-10 07:05:00,51.9,48.2,29.72,SE,144,1.0,1.0,87,0.00,,,0.05,VWS V14.01,2013-03-10 12:05:00,
2013-03-10 07:10:00,52.0,48.6,29.74,West,265,5.0,9.0,88,0.00,,,0.05,VWS V14.01,2013-03-10 12:10:00,
2013-03-10 07:15:00,52.2,48.2,29.77,West,275,9.0,19.0,86,0.00,,,0.05,VWS V14.01,2013-03-10 12:15:00,
2013-03-10 07:20:00,52.3,47.3,29.76,WSW,256,8.0,15.0,83,0.00,,,0.05,VWS V14.01,2013-03-10 12:20:00,
2013-03-10 07:25:00,52.1,45.8,29.76,West,267,9.0,13.0,79,0.01,,,0.06,VWS V14.01,2013-03-10 12:25:00,
2013-03-10 07:30:00,51.9,44.9,29.78,SW,221,8.0,13.0,77,0.01,,,0.06,VWS V14.01,2013-03-10 12:30:00,
2013-03-10 07:35:00,51.7,44.7,29.78,West,275,10.0,15.0,77,0.01,,,0.06,VWS V14.01,2013-03-10 12:35:00,
2013-03-10 07:40:00,51.4,44.4,29.77,WNW,289,6.0,10.0,77,0.01,,,0.06,VWS V14.01,2013-03-10 12:40:00,
2013-03-10 07:45:00,51.2,43.9,29.78,WNW,290,9.0,13.0,76,0.01,,,0.06,VWS V14.01,2013-03-10 12:45:00,
2013-03-10 07:50:00,51.1,43.8,29.80,WSW,254,12.0,12.0,76,0.01,,,0.06,VWS V14.01,2013-03-10 12:50:00,
2013-03-10 07:55:00,51.0,43.7,29.81,NW,315,6.0,8.0,76,0.01,,,0.06,VWS V14.01,2013-03-10 12:55:00,
2013-03-10 08:00:00,50.8,43.2,29.80,WSW,256,8.0,15.0,75,0.01,,,0.06,VWS V14.01,2013-03-10 13:00:00,
2013-03-10 08:05:00,50.7,43.1,29.82,West,275,11.0,17.0,75,0.01,,,0.06,VWS V14.01,2013-03-10 13:05:00,
2013-03-10 08:10:00,50.5,41.5,29.81,NW,315,12.0,22.0,71,0.01,,,0.06,VWS V14.01,2013-03-10 13:10:00,
2013-03-10 08:15:00,50.1,40.7,29.79,WNW,284,13.0,21.0,70,0.01,,,0.06,VWS V14.01,2013-03-10 13:15:00,
2013-03-10 08:20:00,49.8,39.3,29.82,WSW,252,14.0,14.0,67,0.01,,,0.06,VWS V14.01,2013-03-10 13:20:00,
2013-03-10 08:25:00,49.4,38.5,29.83,WNW,285,11.0,15.0,66,0.00,,,0.06,VWS V14.01,2013-03-10 13:25:00,
2013-03-10 08:30:00,49.1,38.2,29.83,West,269,18.0,20.0,66,0.00,,,0.06,VWS V14.01,2013-03-10 13:30:00,
2013-03-10 08:35:00,48.9,37.7,29.82,West,277,7.0,12.0,65,0.00,,,0.06,VWS V14.01,2013-03-10 13:35:00,
2013-03-10 08:40:00,48.7,37.9,29.81,WSW,252,7.0,14.0,66,0.00,,,0.06,VWS V14.01,2013-03-10 13:40:00,
2013-03-10 08:45:00,48.6,37.4,29.81,WSW,243,10.0,10.0,65,0.00,,,0.06,VWS V14.01,2013-03-10 13:45:00,
2013-03-10 08:50:00,48.6,37.4,29.83,West,271,16.0,16.0,65,0.00,,,0.06,VWS V14.01,2013-03-10 13:50:00,
2013-03-10 08:55:00,48.5,37.3,29.84,WNW,295,13.0,13.0,65,0.00,,,0.06,VWS V14.01,2013-03-10 13:55:00,
2013-03-10 09:00:00,48.4,37.2,29.84,WSW,245,10.0,12.0,65,0.00,,,0.06,VWS V14.01,2013-03-10 14:00:00,
2013-03-10 09:05:00,48.3,37.1,29.83,West,273,11.0,11.0,65,0.00,,,0.06,VWS V14.01,2013-03-10 14:05:00,
2013-03-10 09:10:00,48.2,37.0,29.84,WSW,257,13.0,13.0,65,0.00,,,0.06,VWS V14.01,2013-03-10 14:10:00,
2013-03-10 09:15:00,48.2,37.0,29.84,WSW,252,9.0,12.0,65,0.00,,,0.06,VWS V14.01,2013-03-10 14:15:00,
2013-03-10 09:20:00,48.2,36.6,29.85,West,261,14.0,14.0,64,0.00,,,0.06,VWS V14.01,2013-03-10 14:20:00,
2013-03-10 09:25:00,48.2,35.8,29.85,West,279,13.0,19.0,62,0.00,,,0.06,VWS V14.01,2013-03-10 14:25:00,
2013-03-10 09:30:00,48.0,35.2,29.86,West,263,13.0,27.0,61,0.00,,,0.06,VWS V14.01,2013-03-10 14:30:00,
2013-03-10 09:35:00,47.9,35.5,29.87,West,267,9.0,11.0,62,0.00,,,0.06,VWS V14.01,2013-03-10 14:35:00,
2013-03-10 09:40:00,47.9,35.5,29.87,West,259,11.0,15.0,62,0.00,,,0.06,VWS V14.01,2013-03-10 14:40:00,
2013-03-10 09:45:00,48.4,36.0,29.86,West,281,20.0,21.0,62,0.00,,,0.06,VWS V14.01,2013-03-10 14:45:00,
2013-03-10 09:50:00,49.0,36.6,29.87,WNW,287,9.0,11.0,62,0.00,,,0.06,VWS V14.01,2013-03-10 14:50:00,
2013-03-10 09:55:00,49.5,37.0,29.88,West,261,8.0,12.0,62,0.00,,,0.06,VWS V14.01,2013-03-10 14:55:00,
2013-03-10 10:00:00,49.5,36.2,29.88,West,262,14.0,17.0,60,0.00,,,0.06,VWS V14.01,2013-03-10 15:00:00,
2013-03-10 10:05:00,49.4,36.5,29.88,West,272,18.0,21.0,61,0.00,,,0.06,VWS V14.01,2013-03-10 15:05:00,
2013-03-10 10:10:00,49.4,36.1,29.88,WNW,293,19.0,21.0,60,0.00,,,0.06,VWS V14.01,2013-03-10 15:10:00,
2013-03-10 10:15:00,49.5,36.6,29.89,West,273,11.0,21.0,61,0.00,,,0.06,VWS V14.01,2013-03-10 15:15:00,
2013-03-10 10:20:00,49.8,36.9,29.89,WNW,289,10.0,16.0,61,0.00,,,0.06,VWS V14.01,2013-03-10 15:20:00,
2013-03-10 10:25:00,50.1,37.2,29.89,West,263,19.0,19.0,61,0.00,,,0.06,VWS V14.01,2013-03-10 15:25:00,
2013-03-10 10:30:00,50.1,36.8,29.89,WSW,252,20.0,20.0,60,0.00,,,0.06,VWS V14.01,2013-03-10 15:30:00,
2013-03-10 10:35:00,49.7,36.8,29.89,WNW,290,13.0,29.0,61,0.00,,,0.06,VWS V14.01,2013-03-10 15:35:00,
2013-03-10 10:40:00,49.6,37.1,29.90,WNW,285,13.0,18.0,62,0.00,,,0.06,VWS V14.01,2013-03-10 15:40:00,
2013-03-10 10:45:00,50.4,37.0,29.90,West,280,9.0,27.0,60,0.00,,,0.06,VWS V14.01,2013-03-10 15:45:00,
2013-03-10 10:50:00,50.5,36.3,29.90,NW,312,5.0,15.0,58,0.00,,,0.06,VWS V14.01,2013-03-10 15:50:00,
2013-03-10 10:55:00,50.6,36.8,29.90,WSW,257,14.0,14.0,59,0.00,,,0.06,VWS V14.01,2013-03-10 15:55:00,
2013-03-10 11:00:00,50.5,37.6,29.91,WNW,284,14.0,21.0,61,0.00,,,0.06,VWS V14.01,2013-03-10 16:00:00,
2013-03-10 11:05:00,51.1,37.7,29.90,WSW,254,15.0,15.0,60,0.00,,,0.06,VWS V14.01,2013-03-10 16:05:00,
2013-03-10 11:10:00,51.8,37.9,29.91,WNW,287,13.0,24.0,59,0.00,,,0.06,VWS V14.01,2013-03-10 16:10:00,
2013-03-10 11:15:00,52.1,37.8,29.91,NNW,331,18.0,20.0,58,0.00,,,0.06,VWS V14.01,2013-03-10 16:15:00,
2013-03-10 11:20:00,52.2,37.9,29.92,WNW,294,12.0,19.0,58,0.00,,,0.06,VWS V14.01,2013-03-10 16:20:00,
2013-03-10 11:25:00,51.7,37.8,29.92,WSW,251,14.0,14.0,59,0.00,,,0.06,VWS V14.01,2013-03-10 16:25:00,
2013-03-10 11:30:00,51.4,38.0,29.92,WNW,290,15.0,15.0,60,0.00,,,0.06,VWS V14.01,2013-03-10 16:30:00,
2013-03-10 11:35:00,51.2,37.4,29.92,WSW,258,12.0,23.0,59,0.00,,,0.06,VWS V14.01,2013-03-10 16:35:00,
2013-03-10 11:40:00,50.6,37.2,29.92,West,271,14.0,15.0,60,0.00,,,0.06,VWS V14.01,2013-03-10 16:40:00,
2013-03-10 11:45:00,50.5,36.7,29.92,WSW,256,7.0,15.0,59,0.00,,,0.06,VWS V14.01,2013-03-10 16:45:00,
2013-03-10 11:50:00,50.4,37.0,29.93,WNW,292,10.0,20.0,60,0.00,,,0.06,VWS V14.01,2013-03-10 16:50:00,
2013-03-10 11:55:00,50.6,37.7,29.93,West,269,12.0,16.0,61,0.00,,,0.06,VWS V14.01,2013-03-10 16:55:00,
2013-03-10 12:00:00,51.4,37.6,29.93,WNW,283,20.0,20.0,59,0.00,,,0.06,VWS V14.01,2013-03-10 17:00:00,
2013-03-10 12:05:00,50.8,37.0,29.94,West,271,22.0,28.0,59,0.00,,,0.06,VWS V14.01,2013-03-10 17:05:00,
2013-03-10 12:10:00,50.7,38.2,29.94,WSW,254,11.0,13.0,62,0.00,,,0.06,VWS V14.01,2013-03-10 17:10:00,
2013-03-10 12:15:00,51.5,38.1,29.94,West,276,19.0,21.0,60,0.00,,,0.06,VWS V14.01,2013-03-10 17:15:00,
2013-03-10 12:20:00,50.8,36.6,29.95,West,270,13.0,13.0,58,0.00,,,0.06,VWS V14.01,2013-03-10 17:20:00,
2013-03-10 12:25:00,50.6,37.2,29.95,SW,219,13.0,18.0,60,0.00,,,0.06,VWS V14.01,2013-03-10 17:25:00,
2013-03-10 12:30:00,50.5,37.2,29.95,WNW,285,21.0,21.0,60,0.00,,,0.06,VWS V14.01,2013-03-10 17:30:00,
2013-03-10 12:35:00,50.3,36.5,29.95,WNW,296,7.0,14.0,59,0.00,,,0.06,VWS V14.01,2013-03-10 17:35:00,
2013-03-10 12:40:00,50.5,37.6,29.96,WSW,246,9.0,11.0,61,0.00,,,0.06,VWS V14.01,2013-03-10 17:40:00,
2013-03-10 12:45:00,50.6,37.2,29.96,West,262,15.0,20.0,60,0.00,,,0.06,VWS V14.01,2013-03-10 17:45:00,
2013-03-10 12:50:00,50.6,37.2,29.96,WNW,291,14.0,22.0,60,0.00,,,0.06,VWS V14.01,2013-03-10 17:50:00,
2013-03-10 12:55:00,50.4,36.6,29.96,West,279,12.0,22.0,59,0.00,,,0.06,VWS V14.01,2013-03-10 17:55:00,
2013-03-10 13:00:00,50.2,36.9,29.97,West,261,11.0,13.0,60,0.00,,,0.06,VWS V14.01,2013-03-10 18:00:00,
2013-03-10 13:05:00,50.0,36.7,29.97,WSW,246,10.0,12.0,60,0.00,,,0.06,VWS V14.01,2013-03-10 18:05:00,
2013-03-10 13:10:00,49.9,37.4,29.97,West,281,19.0,19.0,62,0.00,,,0.06,VWS V14.01,2013-03-10 18:10:00,
2013-03-10 13:15:00,49.5,36.6,29.97,West,281,13.0,19.0,61,0.00,,,0.06,VWS V14.01,2013-03-10 18:15:00,
2013-03-10 13:20:00,49.1,35.8,29.97,NW,312,17.0,17.0,60,0.00,,,0.06,VWS V14.01,2013-03-10 18:20:00,
2013-03-10 13:25:00,48.7,35.9,29.97,West,274,15.0,24.0,61,0.00,,,0.06,VWS V14.01,2013-03-10 18:25:00,
2013-03-10 13:30:00,48.7,36.3,29.97,WNW,290,10.0,21.0,62,0.00,,,0.06,VWS V14.01,2013-03-10 18:30:00,
2013-03-10 13:35:00,48.8,36.0,29.96,West,270,17.0,17.0,61,0.00,,,0.06,VWS V14.01,2013-03-10 18:35:00,
2013-03-10 13:40:00,48.7,35.9,29.96,West,269,18.0,25.0,61,0.00,,,0.06,VWS V14.01,2013-03-10 18:40:00,
2013-03-10 13:45:00,48.8,36.4,29.96,West,269,10.0,20.0,62,0.00,,,0.06,VWS V14.01,2013-03-10 18:45:00,
2013-03-10 13:50:00,50.0,36.7,29.95,West,274,16.0,25.0,60,0.00,,,0.06,VWS V14.01,2013-03-10 18:50:00,
2013-03-10 13:55:00,50.9,36.2,29.95,WNW,284,23.0,25.0,57,0.00,,,0.06,VWS V14.01,2013-03-10 18:55:00,
2013-03-10 14:00:00,51.0,36.3,29.95,WNW,285,26.0,26.0,57,0.00,,,0.06,VWS V14.01,2013-03-10 19:00:00,
2013-03-10 14:05:00,51.2,35.6,29.95,NW,321,11.0,22.0,55,0.00,,,0.06,VWS V14.01,2013-03-10 19:05:00,
2013-03-10 14:10:00,50.7,35.1,29.94,WSW,249,11.0,13.0,55,0.00,,,0.06,VWS V14.01,2013-03-10 19:10:00,
2013-03-10 14:15:00,51.3,36.6,29.94,West,259,16.0,31.0,57,0.00,,,0.06,VWS V14.01,2013-03-10 19:15:00,
2013-03-10 14:20:00,51.9,37.2,29.94,WNW,287,17.0,23.0,57,0.00,,,0.06,VWS V14.01,2013-03-10 19:20:00,
2013-03-10 14:25:00,52.4,36.7,29.94,West,265,14.0,20.0,55,0.00,,,0.06,VWS V14.01,2013-03-10 19:25:00,
2013-03-10 14:30:00,53.0,36.8,29.94,WNW,290,7.0,15.0,54,0.00,,,0.06,VWS V14.01,2013-03-10 19:30:00,
2013-03-10 14:35:00,52.8,36.6,29.94,West,275,17.0,18.0,54,0.00,,,0.06,VWS V14.01,2013-03-10 19:35:00,
2013-03-10 14:40:00,52.3,36.2,29.94,West,271,15.0,24.0,54,0.00,,,0.06,VWS V14.01,2013-03-10 19:40:00,
2013-03-10 14:45:00,52.6,36.9,29.94,WSW,256,9.0,16.0,55,0.00,,,0.06,VWS V14.01,2013-03-10 19:45:00,
2013-03-10 14:50:00,52.7,36.1,29.94,West,280,19.0,21.0,53,0.00,,,0.06,VWS V14.01,2013-03-10 19:50:00,
2013-03-10 14:55:00,52.1,36.0,29.95,WNW,296,15.0,18.0,54,0.00,,,0.06,VWS V14.01,2013-03-10 19:55:00,
2013-03-10 15:00:00,51.6,36.0,29.94,West,265,12.0,22.0,55,0.00,,,0.06,VWS V14.01,2013-03-10 20:00:00,
2013-03-10 15:05:00,51.2,34.2,29.94,WNW,294,17.0,18.0,52,0.00,,,0.06,VWS V14.01,2013-03-10 20:05:00,
2013-03-10 15:10:00,50.6,34.6,29.95,WNW,290,18.0,18.0,54,0.00,,,0.06,VWS V14.01,2013-03-10 20:10:00,
2013-03-10 15:15:00,50.8,35.2,29.95,WSW,246,12.0,18.0,55,0.00,,,0.06,VWS V14.01,2013-03-10 20:15:00,
2013-03-10 15:20:00,51.0,34.5,29.95,West,261,16.0,24.0,53,0.00,,,0.06,VWS V14.01,2013-03-10 20:20:00,
2013-03-10 15:25:00,50.6,34.1,29.95,WNW,298,9.0,17.0,53,0.00,,,0.06,VWS V14.01,2013-03-10 20:25:00,
2013-03-10 15:30:00,50.8,34.8,29.95,NW,325,8.0,18.0,54,0.00,,,0.06,VWS V14.01,2013-03-10 20:30:00,
2013-03-10 15:35:00,51.4,35.3,29.95,WNW,288,10.0,20.0,54,0.00,,,0.06,VWS V14.01,2013-03-10 20:35:00,
2013-03-10 15:40:00,51.4,34.9,29.95,NW,319,12.0,17.0,53,0.00,,,0.06,VWS V14.01,2013-03-10 20:40:00,
2013-03-10 15:45:00,51.3,35.2,29.95,WNW,300,13.0,14.0,54,0.00,,,0.06,VWS V14.01,2013-03-10 20:45:00,
2013-03-10 15:50:00,51.1,36.0,29.96,West,259,15.0,22.0,56,0.00,,,0.06,VWS V14.01,2013-03-10 20:50:00,
2013-03-10 15:55:00,50.8,35.7,29.96,WNW,292,7.0,12.0,56,0.00,,,0.06,VWS V14.01,2013-03-10 20:55:00,
2013-03-10 16:00:00,51.0,35.0,29.96,NW,317,17.0,17.0,54,0.00,,,0.06,VWS V14.01,2013-03-10 21:00:00,
2013-03-10 16:05:00,51.0,35.0,29.96,West,273,17.0,22.0,54,0.00,,,0.06,VWS V14.01,2013-03-10 21:05:00,
2013-03-10 16:10:00,50.4,34.4,29.96,West,265,6.0,15.0,54,0.00,,,0.06,VWS V14.01,2013-03-10 21:10:00,
2013-03-10 16:15:00,50.5,34.0,29.96,NW,322,5.0,13.0,53,0.00,,,0.06,VWS V14.01,2013-03-10 21:15:00,
2013-03-10 16:20:00,50.7,34.7,29.96,WNW,287,13.0,18.0,54,0.00,,,0.06,VWS V14.01,2013-03-10 21:20:00,
2013-03-10 16:25:00,51.1,34.6,29.96,West,266,7.0,18.0,53,0.00,,,0.06,VWS V14.01,2013-03-10 21:25:00,
2013-03-10 16:30:00,51.0,34.0,29.96,WNW,299,13.0,19.0,52,0.00,,,0.06,VWS V14.01,2013-03-10 21:30:00,
2013-03-10 16:35:00,50.6,33.2,29.96,NW,317,12.0,17.0,51,0.00,,,0.06,VWS V14.01,2013-03-10 21:35:00,
2013-03-10 16:40:00,51.1,33.6,29.96,NW,310,10.0,22.0,51,0.00,,,0.06,VWS V14.01,2013-03-10 21:40:00,
2013-03-10 16:45:00,51.3,34.3,29.96,SSW,199,9.0,17.0,52,0.00,,,0.06,VWS V14.01,2013-03-10 21:45:00,
2013-03-10 16:50:00,51.4,33.9,29.96,WNW,290,16.0,16.0,51,0.00,,,0.06,VWS V14.01,2013-03-10 21:50:00,
2013-03-10 16:55:00,51.7,34.2,29.97,WNW,298,8.0,22.0,51,0.00,,,0.06,VWS V14.01,2013-03-10 21:55:00,
2013-03-10 17:00:00,51.7,33.7,29.97,West,270,17.0,20.0,50,0.00,,,0.06,VWS V14.01,2013-03-10 22:00:00,
2013-03-10 17:05:00,51.6,33.6,29.96,NNW,343,12.0,15.0,50,0.00,,,0.06,VWS V14.01,2013-03-10 22:05:00,
2013-03-10 17:10:00,51.0,33.0,29.97,WNW,302,8.0,17.0,50,0.00,,,0.06,VWS V14.01,2013-03-10 22:10:00,
2013-03-10 17:15:00,50.6,32.7,29.97,West,277,8.0,14.0,50,0.00,,,0.06,VWS V14.01,2013-03-10 22:15:00,
2013-03-10 17:20:00,50.8,33.3,29.97,West,273,9.0,17.0,51,0.00,,,0.06,VWS V14.01,2013-03-10 22:20:00,
2013-03-10 17:25:00,51.4,33.9,29.97,WNW,287,12.0,19.0,51,0.00,,,0.06,VWS V14.01,2013-03-10 22:25:00,
2013-03-10 17:30:00,51.1,33.1,29.97,West,279,8.0,19.0,50,0.00,,,0.06,VWS V14.01,2013-03-10 22:30:00,
2013-03-10 17:35:00,50.4,32.5,29.97,WNW,283,11.0,22.0,50,0.00,,,0.06,VWS V14.01,2013-03-10 22:35:00,
2013-03-10 17:40:00,50.0,32.6,29.97,WSW,257,18.0,22.0,51,0.00,,,0.06,VWS V14.01,2013-03-10 22:40:00,
2013-03-10 17:45:00,50.1,33.2,29.97,NW,308,7.0,13.0,52,0.00,,,0.06,VWS V14.01,2013-03-10 22:45:00,
2013-03-10 17:50:00,50.6,33.2,29.97,NW,313,10.0,23.0,51,0.00,,,0.06,VWS V14.01,2013-03-10 22:50:00,
2013-03-10 17:55:00,50.6,32.2,29.98,NW,315,7.0,19.0,49,0.00,,,0.06,VWS V14.01,2013-03-10 22:55:00,
2013-03-10 18:00:00,50.3,31.9,29.98,WNW,296,15.0,21.0,49,0.00,,,0.06,VWS V14.01,2013-03-10 23:00:00,
2013-03-10 18:05:00,49.7,31.8,29.98,West,280,17.0,25.0,50,0.00,,,0.06,VWS V14.01,2013-03-10 23:05:00,
2013-03-10 18:10:00,49.0,31.7,29.98,WNW,300,12.0,16.0,51,0.00,,,0.06,VWS V14.01,2013-03-10 23:10:00,
2013-03-10 18:15:00,48.7,31.9,29.99,West,279,16.0,16.0,52,0.00,,,0.06,VWS V14.01,2013-03-10 23:15:00,
2013-03-10 18:20:00,48.6,31.3,29.99,North,355,12.0,15.0,51,0.00,,,0.06,VWS V14.01,2013-03-10 23:20:00,
2013-03-10 18:25:00,48.6,31.3,29.99,NNW,340,14.0,16.0,51,0.00,,,0.06,VWS V14.01,2013-03-10 23:25:00,
2013-03-10 18:30:00,48.4,31.6,29.99,West,277,7.0,11.0,52,0.00,,,0.06,VWS V14.01,2013-03-10 23:30:00,
2013-03-10 18:35:00,48.3,31.0,29.99,NW,319,5.0,11.0,51,0.00,,,0.06,VWS V14.01,2013-03-10 23:35:00,
2013-03-10 18:40:00,48.2,31.4,30.00,WNW,298,16.0,16.0,52,0.00,,,0.06,VWS V14.01,2013-03-10 23:40:00,
2013-03-10 18:45:00,48.1,30.8,30.00,NNW,333,6.0,10.0,51,0.00,,,0.06,VWS V14.01,2013-03-10 23:45:00,
2013-03-10 18:50:00,47.9,30.7,30.00,WNW,285,4.0,12.0,51,0.00,,,0.06,VWS V14.01,2013-03-10 23:50:00,
2013-03-10 18:55:00,47.8,31.0,30.00,NW,325,8.0,15.0,52,0.00,,,0.06,VWS V14.01,2013-03-10 23:55:00,
2013-03-10 19:00:00,47.6,30.9,30.01,WNW,298,10.0,13.0,52,0.00,,,0.06,VWS V14.01,2013-03-11 00:00:00,
2013-03-10 19:05:00,47.5,30.8,30.01,NNW,346,4.0,7.0,52,0.00,,,0.06,VWS V14.01,2013-03-11 00:05:00,
2013-03-10 19:10:00,47.3,31.0,30.01,WNW,301,5.0,10.0,53,0.00,,,0.06,VWS V14.01,2013-03-11 00:10:00,
2013-03-10 19:15:00,47.1,31.3,30.01,WNW,296,2.0,4.0,54,0.00,,,0.06,VWS V14.01,2013-03-11 00:15:00,
2013-03-10 19:20:00,47.0,31.2,30.01,WNW,284,7.0,10.0,54,0.00,,,0.06,VWS V14.01,2013-03-11 00:20:00,
2013-03-10 19:25:00,46.8,31.5,30.02,WNW,292,8.0,9.0,55,0.00,,,0.06,VWS V14.01,2013-03-11 00:25:00,
2013-03-10 19:30:00,46.6,31.3,30.02,WNW,289,4.0,9.0,55,0.00,,,0.06,VWS V14.01,2013-03-11 00:30:00,
2013-03-10 19:35:00,46.5,31.2,30.02,NW,312,6.0,9.0,55,0.00,,,0.06,VWS V14.01,2013-03-11 00:35:00,
2013-03-10 19:40:00,46.3,31.0,30.02,NNW,336,6.0,9.0,55,0.00,,,0.06,VWS V14.01,2013-03-11 00:40:00,
2013-03-10 19:45:00,46.2,30.9,30.03,NNW,342,4.0,7.0,55,0.00,,,0.06,VWS V14.01,2013-03-11 00:45:00,
2013-03-10 19:50:00,46.1,31.3,30.03,WNW,297,5.0,8.0,56,0.00,,,0.06,VWS V14.01,2013-03-11 00:50:00,
2013-03-10 19:55:00,46.0,31.2,30.03,WNW,300,3.0,6.0,56,0.00,,,0.06,VWS V14.01,2013-03-11 00:55:00,
2013-03-10 20:00:00,45.9,31.1,30.03,WNW,298,4.0,8.0,56,0.00,,,0.06,VWS V14.01,2013-03-11 01:00:00,
2013-03-10 20:05:00,45.8,31.0,30.03,WNW,298,5.0,6.0,56,0.00,,,0.06,VWS V14.01,2013-03-11 01:05:00,
2013-03-10 20:10:00,45.6,31.3,30.03,West,276,4.0,8.0,57,0.00,,,0.06,VWS V14.01,2013-03-11 01:10:00,
2013-03-10 20:15:00,45.5,31.2,30.04,NW,315,2.0,4.0,57,0.00,,,0.06,VWS V14.01,2013-03-11 01:15:00,
2013-03-10 20:20:00,45.4,31.1,30.04,WNW,298,5.0,5.0,57,0.00,,,0.06,VWS V14.01,2013-03-11 01:20:00,
2013-03-10 20:25:00,45.3,31.0,30.04,NW,309,3.0,4.0,57,0.00,,,0.06,VWS V14.01,2013-03-11 01:25:00,
2013-03-10 20:30:00,45.2,31.3,30.04,NNW,327,1.0,3.0,58,0.00,,,0.06,VWS V14.01,2013-03-11 01:30:00,
2013-03-10 20:35:00,45.1,31.2,30.05,WNW,291,2.0,3.0,58,0.00,,,0.06,VWS V14.01,2013-03-11 01:35:00,
2013-03-10 20:40:00,44.9,31.0,30.05,WNW,303,1.0,2.0,58,0.00,,,0.06,VWS V14.01,2013-03-11 01:40:00,
2013-03-10 20:45:00,44.7,31.3,30.05,WNW,298,2.0,2.0,59,0.00,,,0.06,VWS V14.01,2013-03-11 01:45:00,
2013-03-10 20:50:00,44.5,31.5,30.06,WNW,284,1.0,2.0,60,0.00,,,0.06,VWS V14.01,2013-03-11 01:50:00,
2013-03-10 20:55:00,44.3,31.3,30.06,WNW,288,1.0,2.0,60,0.00,,,0.06,VWS V14.01,2013-03-11 01:55:00,
2013-03-10 21:00:00,44.2,31.2,30.06,WNW,288,2.0,2.0,60,0.00,,,0.06,VWS V14.01,2013-03-11 02:00:00,
2013-03-10 21:05:00,44.0,31.4,30.06,WNW,288,0.0,1.0,61,0.00,,,0.06,VWS V14.01,2013-03-11 02:05:00,
2013-03-10 21:10:00,43.9,31.3,30.06,WNW,288,1.0,2.0,61,0.00,,,0.06,VWS V14.01,2013-03-11 02:10:00,
2013-03-10 21:15:00,43.6,31.5,30.07,WNW,288,1.0,2.0,62,0.00,,,0.06,VWS V14.01,2013-03-11 02:15:00,
2013-03-10 21:20:00,43.4,31.3,30.07,WNW,288,0.0,0.0,62,0.00,,,0.06,VWS V14.01,2013-03-11 02:20:00,
2013-03-10 21:25:00,43.2,31.5,30.07,WNW,288,0.0,0.0,63,0.00,,,0.06,VWS V14.01,2013-03-11 02:25:00,
2013-03-10 21:30:00,43.0,31.3,30.07,WNW,288,0.0,0.0,63,0.00,,,0.06,VWS V14.01,2013-03-11 02:30:00,
2013-03-10 21:35:00,42.8,31.5,30.07,WNW,288,0.0,0.0,64,0.00,,,0.06,VWS V14.01,2013-03-11 02:35:00,
2013-03-10 21:40:00,42.5,31.2,30.08,WNW,288,0.0,0.0,64,0.00,,,0.06,VWS V14.01,2013-03-11 02:40:00,
2013-03-10 21:45:00,42.2,30.9,30.08,WNW,288,0.0,0.0,64,0.00,,,0.06,VWS V14.01,2013-03-11 02:45:00,
2013-03-10 21:50:00,42.0,31.1,30.08,WNW,288,0.0,0.0,65,0.00,,,0.06,VWS V14.01,2013-03-11 02:50:00,
2013-03-10 21:55:00,41.8,30.9,30.08,WNW,288,0.0,0.0,65,0.00,,,0.06,VWS V14.01,2013-03-11 02:55:00,
2013-03-10 22:00:00,41.5,30.6,30.08,WNW,288,0.0,0.0,65,0.00,,,0.06,VWS V14.01,2013-03-11 03:00:00,
2013-03-10 22:05:00,41.3,30.8,30.08,WNW,288,0.0,0.0,66,0.00,,,0.06,VWS V14.01,2013-03-11 03:05:00,
2013-03-10 22:10:00,41.1,30.6,30.08,WNW,288,0.0,0.0,66,0.00,,,0.06,VWS V14.01,2013-03-11 03:10:00,
2013-03-10 22:15:00,40.9,30.8,30.08,WNW,288,0.0,0.0,67,0.00,,,0.06,VWS V14.01,2013-03-11 03:15:00,
2013-03-10 22:20:00,40.6,30.5,30.09,WNW,288,0.0,0.0,67,0.00,,,0.06,VWS V14.01,2013-03-11 03:20:00,
2013-03-10 22:25:00,40.4,30.7,30.09,WNW,288,0.0,0.0,68,0.00,,,0.06,VWS V14.01,2013-03-11 03:25:00,
2013-03-10 22:30:00,40.1,30.4,30.08,WNW,288,0.0,0.0,68,0.00,,,0.06,VWS V14.01,2013-03-11 03:30:00,
2013-03-10 22:35:00,39.9,30.6,30.08,WNW,288,0.0,0.0,69,0.00,,,0.06,VWS V14.01,2013-03-11 03:35:00,
2013-03-10 22:40:00,39.7,30.4,30.09,WNW,288,0.0,0.0,69,0.00,,,0.06,VWS V14.01,2013-03-11 03:40:00,
2013-03-10 22:45:00,39.5,30.5,30.08,WNW,288,0.0,0.0,70,0.00,,,0.06,VWS V14.01,2013-03-11 03:45:00,
2013-03-10 22:50:00,39.3,30.7,30.08,WNW,288,0.0,0.0,71,0.00,,,0.06,VWS V14.01,2013-03-11 03:50:00,
2013-03-10 22:55:00,39.1,30.5,30.08,WNW,288,0.0,0.0,71,0.00,,,0.06,VWS V14.01,2013-03-11 03:55:00,
2013-03-10 23:00:00,38.9,30.7,30.08,WNW,288,0.0,0.0,72,0.00,,,0.06,VWS V14.01,2013-03-11 04:00:00,
2013-03-10 23:05:00,38.7,30.8,30.08,WNW,287,3.0,3.0,73,0.00,,,0.06,VWS V14.01,2013-03-11 04:05:00,
2013-03-10 23:10:00,38.6,31.0,30.08,WNW,287,3.0,3.0,74,0.00,,,0.06,VWS V14.01,2013-03-11 04:10:00,
2013-03-10 23:15:00,38.5,31.3,30.07,West,265,1.0,3.0,75,0.00,,,0.06,VWS V14.01,2013-03-11 04:15:00,
2013-03-10 23:20:00,38.5,31.3,30.07,West,269,2.0,3.0,75,0.00,,,0.06,VWS V14.01,2013-03-11 04:20:00,
2013-03-10 23:25:00,38.5,31.3,30.07,West,260,2.0,3.0,75,0.00,,,0.06,VWS V14.01,2013-03-11 04:25:00,
2013-03-10 23:30:00,38.6,31.4,30.07,West,267,2.0,3.0,75,0.00,,,0.06,VWS V14.01,2013-03-11 04:30:00,
2013-03-10 23:35:00,38.8,31.6,30.07,West,273,1.0,4.0,75,0.00,,,0.06,VWS V14.01,2013-03-11 04:35:00,
2013-03-10 23:40:00,39.0,31.8,30.06,West,273,1.0,3.0,75,0.00,,,0.06,VWS V14.01,2013-03-11 04:40:00,
2013-03-10 23:45:00,39.2,32.0,30.06,West,273,2.0,2.0,75,0.00,,,0.06,VWS V14.01,2013-03-11 04:45:00,
2013-03-10 23:50:00,39.2,32.0,30.06,West,274,3.0,4.0,75,0.00,,,0.06,VWS V14.01,2013-03-11 04:50:00,
2013-03-10 23:55:00,39.3,31.7,30.06,West,269,2.0,3.0,74,0.00,,,0.06,VWS V14.01,2013-03-11 04:55:00,